sensor_id;sensor_type;location;lat;lon;timestamp;P1;durP1;ratioP1;P2;durP2;ratioP2
75628;SDS011;64213;46.452;16.994;2023-05-14T00:00:52;19.17;;;9.82;;
75628;SDS011;64213;46.452;16.994;2023-05-14T00:03:54;19.02;;;9.55;;
75628;SDS011;64213;46.452;16.994;2023-05-14T00:06:57;16.48;;;8.70;;
75628;SDS011;64213;46.452;16.994;2023-05-14T00:09:59;24.17;;;10.90;;
75628;SDS011;64213;46.452;16.994;2023-05-14T00:13:01;19.80;;;9.00;;
75628;SDS011;64213;46.452;16.994;2023-05-14T00:16:03;20.40;;;9.73;;
75628;SDS011;64213;46.452;16.994;2023-05-14T00:19:05;17.85;;;8.82;;
75628;SDS011;64213;46.452;16.994;2023-05-14T00:22:07;17.05;;;8.55;;
75628;SDS011;64213;46.452;16.994;2023-05-14T00:25:10;17.57;;;8.73;;
75628;SDS011;64213;46.452;16.994;2023-05-14T00:28:12;23.43;;;8.60;;
75628;SDS011;64213;46.452;16.994;2023-05-14T00:31:13;17.80;;;8.15;;
75628;SDS011;64213;46.452;16.994;2023-05-14T00:34:15;19.77;;;8.70;;
75628;SDS011;64213;46.452;16.994;2023-05-14T00:37:17;15.50;;;7.90;;
75628;SDS011;64213;46.452;16.994;2023-05-14T00:40:19;18.43;;;9.47;;
75628;SDS011;64213;46.452;16.994;2023-05-14T00:43:26;20.00;;;9.37;;
75628;SDS011;64213;46.452;16.994;2023-05-14T00:46:28;18.85;;;9.20;;
75628;SDS011;64213;46.452;16.994;2023-05-14T00:49:30;17.35;;;8.88;;
75628;SDS011;64213;46.452;16.994;2023-05-14T00:52:32;17.25;;;8.63;;
75628;SDS011;64213;46.452;16.994;2023-05-14T00:55:38;15.23;;;7.03;;
75628;SDS011;64213;46.452;16.994;2023-05-14T00:58:42;17.10;;;8.90;;
75628;SDS011;64213;46.452;16.994;2023-05-14T01:01:43;20.12;;;9.35;;
75628;SDS011;64213;46.452;16.994;2023-05-14T01:04:46;17.55;;;8.60;;
75628;SDS011;64213;46.452;16.994;2023-05-14T01:07:52;16.60;;;9.25;;
75628;SDS011;64213;46.452;16.994;2023-05-14T01:14:26;16.40;;;8.73;;
75628;SDS011;64213;46.452;16.994;2023-05-14T01:17:32;16.10;;;9.00;;
75628;SDS011;64213;46.452;16.994;2023-05-14T01:20:39;15.40;;;8.23;;
75628;SDS011;64213;46.452;16.994;2023-05-14T01:23:41;17.02;;;8.23;;
75628;SDS011;64213;46.452;16.994;2023-05-14T01:26:43;15.87;;;8.10;;
75628;SDS011;64213;46.452;16.994;2023-05-14T01:29:48;20.97;;;9.00;;
75628;SDS011;64213;46.452;16.994;2023-05-14T01:32:55;14.48;;;6.25;;
75628;SDS011;64213;46.452;16.994;2023-05-14T01:36:00;17.08;;;8.70;;
75628;SDS011;64213;46.452;16.994;2023-05-14T01:39:03;16.50;;;7.53;;
75628;SDS011;64213;46.452;16.994;2023-05-14T01:42:09;17.93;;;8.33;;
75628;SDS011;64213;46.452;16.994;2023-05-14T01:45:12;17.03;;;7.93;;
75628;SDS011;64213;46.452;16.994;2023-05-14T01:48:14;18.35;;;7.97;;
75628;SDS011;64213;46.452;16.994;2023-05-14T01:51:16;17.30;;;8.57;;
75628;SDS011;64213;46.452;16.994;2023-05-14T01:54:18;17.83;;;9.02;;
75628;SDS011;64213;46.452;16.994;2023-05-14T01:57:20;17.40;;;8.70;;
75628;SDS011;64213;46.452;16.994;2023-05-14T02:00:22;16.63;;;8.23;;
75628;SDS011;64213;46.452;16.994;2023-05-14T02:03:26;16.55;;;8.40;;
75628;SDS011;64213;46.452;16.994;2023-05-14T02:06:28;15.55;;;7.62;;
75628;SDS011;64213;46.452;16.994;2023-05-14T02:09:30;18.42;;;8.88;;
75628;SDS011;64213;46.452;16.994;2023-05-14T02:12:32;19.90;;;8.90;;
75628;SDS011;64213;46.452;16.994;2023-05-14T02:15:34;17.93;;;8.80;;
75628;SDS011;64213;46.452;16.994;2023-05-14T02:18:36;17.73;;;8.90;;
75628;SDS011;64213;46.452;16.994;2023-05-14T02:21:38;19.70;;;10.20;;
75628;SDS011;64213;46.452;16.994;2023-05-14T02:24:40;17.33;;;9.40;;
75628;SDS011;64213;46.452;16.994;2023-05-14T02:27:43;13.27;;;6.37;;
75628;SDS011;64213;46.452;16.994;2023-05-14T02:30:45;18.40;;;9.03;;
75628;SDS011;64213;46.452;16.994;2023-05-14T02:33:47;19.50;;;9.10;;
75628;SDS011;64213;46.452;16.994;2023-05-14T02:36:49;17.20;;;8.85;;
75628;SDS011;64213;46.452;16.994;2023-05-14T02:39:51;17.33;;;7.95;;
75628;SDS011;64213;46.452;16.994;2023-05-14T02:42:54;19.27;;;8.40;;
75628;SDS011;64213;46.452;16.994;2023-05-14T02:45:55;16.40;;;8.27;;
75628;SDS011;64213;46.452;16.994;2023-05-14T02:48:57;17.62;;;9.55;;
75628;SDS011;64213;46.452;16.994;2023-05-14T02:51:59;15.50;;;7.70;;
75628;SDS011;64213;46.452;16.994;2023-05-14T02:55:01;12.90;;;5.35;;
75628;SDS011;64213;46.452;16.994;2023-05-14T02:58:03;17.87;;;9.53;;
75628;SDS011;64213;46.452;16.994;2023-05-14T03:01:05;12.57;;;6.20;;
75628;SDS011;64213;46.452;16.994;2023-05-14T03:04:08;17.70;;;8.85;;
75628;SDS011;64213;46.452;16.994;2023-05-14T03:07:10;13.30;;;6.55;;
75628;SDS011;64213;46.452;16.994;2023-05-14T03:10:12;16.58;;;8.02;;
75628;SDS011;64213;46.452;16.994;2023-05-14T03:13:14;14.07;;;5.87;;
75628;SDS011;64213;46.452;16.994;2023-05-14T03:16:21;19.77;;;9.43;;
75628;SDS011;64213;46.452;16.994;2023-05-14T03:19:23;18.70;;;8.98;;
75628;SDS011;64213;46.452;16.994;2023-05-14T03:22:25;17.87;;;8.55;;
75628;SDS011;64213;46.452;16.994;2023-05-14T03:25:27;18.17;;;8.85;;
75628;SDS011;64213;46.452;16.994;2023-05-14T03:28:29;17.83;;;8.53;;
75628;SDS011;64213;46.452;16.994;2023-05-14T03:31:31;17.40;;;7.97;;
75628;SDS011;64213;46.452;16.994;2023-05-14T03:34:33;17.33;;;8.40;;
75628;SDS011;64213;46.452;16.994;2023-05-14T03:37:35;17.27;;;8.98;;
75628;SDS011;64213;46.452;16.994;2023-05-14T03:40:37;20.27;;;9.45;;
75628;SDS011;64213;46.452;16.994;2023-05-14T03:43:39;17.50;;;8.10;;
75628;SDS011;64213;46.452;16.994;2023-05-14T03:46:41;12.77;;;6.13;;
75628;SDS011;64213;46.452;16.994;2023-05-14T03:49:43;17.73;;;8.88;;
75628;SDS011;64213;46.452;16.994;2023-05-14T03:52:45;17.50;;;9.02;;
75628;SDS011;64213;46.452;16.994;2023-05-14T03:55:47;14.82;;;5.00;;
75628;SDS011;64213;46.452;16.994;2023-05-14T03:58:49;18.57;;;8.33;;
75628;SDS011;64213;46.452;16.994;2023-05-14T04:01:51;19.37;;;8.83;;
75628;SDS011;64213;46.452;16.994;2023-05-14T04:04:53;15.02;;;7.30;;
75628;SDS011;64213;46.452;16.994;2023-05-14T04:07:55;17.83;;;7.60;;
75628;SDS011;64213;46.452;16.994;2023-05-14T04:10:58;20.50;;;9.50;;
75628;SDS011;64213;46.452;16.994;2023-05-14T04:14:00;20.77;;;9.40;;
75628;SDS011;64213;46.452;16.994;2023-05-14T04:17:02;20.57;;;9.33;;
75628;SDS011;64213;46.452;16.994;2023-05-14T04:20:04;16.90;;;7.57;;
75628;SDS011;64213;46.452;16.994;2023-05-14T04:23:07;18.70;;;8.35;;
75628;SDS011;64213;46.452;16.994;2023-05-14T04:26:09;17.25;;;8.73;;
75628;SDS011;64213;46.452;16.994;2023-05-14T04:29:11;17.10;;;8.90;;
75628;SDS011;64213;46.452;16.994;2023-05-14T04:32:13;13.93;;;5.90;;
75628;SDS011;64213;46.452;16.994;2023-05-14T04:35:15;19.10;;;9.10;;
75628;SDS011;64213;46.452;16.994;2023-05-14T04:38:17;18.25;;;8.13;;
75628;SDS011;64213;46.452;16.994;2023-05-14T04:41:19;15.52;;;6.93;;
75628;SDS011;64213;46.452;16.994;2023-05-14T04:44:21;15.77;;;8.17;;
75628;SDS011;64213;46.452;16.994;2023-05-14T04:47:23;9.53;;;4.40;;
75628;SDS011;64213;46.452;16.994;2023-05-14T04:50:25;16.80;;;7.43;;
75628;SDS011;64213;46.452;16.994;2023-05-14T04:53:27;15.50;;;7.55;;
75628;SDS011;64213;46.452;16.994;2023-05-14T04:56:29;19.98;;;8.75;;
75628;SDS011;64213;46.452;16.994;2023-05-14T04:59:31;16.70;;;8.73;;
75628;SDS011;64213;46.452;16.994;2023-05-14T05:02:33;14.70;;;7.23;;
75628;SDS011;64213;46.452;16.994;2023-05-14T05:05:35;14.45;;;7.70;;
75628;SDS011;64213;46.452;16.994;2023-05-14T05:08:37;18.00;;;9.05;;
75628;SDS011;64213;46.452;16.994;2023-05-14T05:11:39;17.52;;;8.52;;
75628;SDS011;64213;46.452;16.994;2023-05-14T05:14:41;17.23;;;8.20;;
75628;SDS011;64213;46.452;16.994;2023-05-14T05:17:43;17.63;;;9.37;;
75628;SDS011;64213;46.452;16.994;2023-05-14T05:20:45;17.67;;;8.77;;
75628;SDS011;64213;46.452;16.994;2023-05-14T05:23:47;15.57;;;8.00;;
75628;SDS011;64213;46.452;16.994;2023-05-14T05:26:49;17.42;;;8.48;;
75628;SDS011;64213;46.452;16.994;2023-05-14T05:29:52;17.67;;;8.53;;
75628;SDS011;64213;46.452;16.994;2023-05-14T05:32:54;18.70;;;8.87;;
75628;SDS011;64213;46.452;16.994;2023-05-14T05:35:57;14.98;;;6.80;;
75628;SDS011;64213;46.452;16.994;2023-05-14T05:38:59;19.42;;;8.90;;
75628;SDS011;64213;46.452;16.994;2023-05-14T05:42:01;19.90;;;9.60;;
75628;SDS011;64213;46.452;16.994;2023-05-14T05:45:03;17.43;;;8.70;;
75628;SDS011;64213;46.452;16.994;2023-05-14T05:48:06;20.13;;;8.67;;
75628;SDS011;64213;46.452;16.994;2023-05-14T05:51:08;16.77;;;8.55;;
75628;SDS011;64213;46.452;16.994;2023-05-14T05:54:10;16.52;;;8.57;;
75628;SDS011;64213;46.452;16.994;2023-05-14T05:57:12;16.42;;;7.45;;
75628;SDS011;64213;46.452;16.994;2023-05-14T06:00:14;15.37;;;6.87;;
75628;SDS011;64213;46.452;16.994;2023-05-14T06:03:17;10.30;;;5.13;;
75628;SDS011;64213;46.452;16.994;2023-05-14T06:06:19;15.48;;;7.95;;
75628;SDS011;64213;46.452;16.994;2023-05-14T06:09:22;17.12;;;7.82;;
75628;SDS011;64213;46.452;16.994;2023-05-14T06:12:24;16.92;;;8.48;;
75628;SDS011;64213;46.452;16.994;2023-05-14T06:15:26;15.60;;;7.87;;
75628;SDS011;64213;46.452;16.994;2023-05-14T06:18:28;19.07;;;8.37;;
75628;SDS011;64213;46.452;16.994;2023-05-14T06:21:30;17.27;;;8.82;;
75628;SDS011;64213;46.452;16.994;2023-05-14T06:24:32;19.02;;;8.27;;
75628;SDS011;64213;46.452;16.994;2023-05-14T06:27:34;17.00;;;8.38;;
75628;SDS011;64213;46.452;16.994;2023-05-14T06:30:36;16.27;;;7.27;;
75628;SDS011;64213;46.452;16.994;2023-05-14T06:33:38;9.90;;;4.37;;
75628;SDS011;64213;46.452;16.994;2023-05-14T06:36:40;16.25;;;8.40;;
75628;SDS011;64213;46.452;16.994;2023-05-14T06:39:42;14.20;;;7.15;;
75628;SDS011;64213;46.452;16.994;2023-05-14T06:42:50;14.10;;;7.12;;
75628;SDS011;64213;46.452;16.994;2023-05-14T06:45:52;14.70;;;7.53;;
75628;SDS011;64213;46.452;16.994;2023-05-14T06:48:54;11.87;;;5.73;;
75628;SDS011;64213;46.452;16.994;2023-05-14T06:52:00;16.52;;;8.00;;
75628;SDS011;64213;46.452;16.994;2023-05-14T06:55:02;14.70;;;6.85;;
75628;SDS011;64213;46.452;16.994;2023-05-14T06:58:07;14.40;;;7.18;;
75628;SDS011;64213;46.452;16.994;2023-05-14T07:01:10;18.00;;;7.83;;
75628;SDS011;64213;46.452;16.994;2023-05-14T07:04:12;14.20;;;7.10;;
75628;SDS011;64213;46.452;16.994;2023-05-14T07:07:14;16.80;;;8.13;;
75628;SDS011;64213;46.452;16.994;2023-05-14T07:10:18;14.90;;;8.32;;
75628;SDS011;64213;46.452;16.994;2023-05-14T07:13:21;18.15;;;8.02;;
75628;SDS011;64213;46.452;16.994;2023-05-14T07:16:23;13.83;;;7.03;;
75628;SDS011;64213;46.452;16.994;2023-05-14T07:19:26;14.73;;;6.47;;
75628;SDS011;64213;46.452;16.994;2023-05-14T07:22:30;15.65;;;8.18;;
75628;SDS011;64213;46.452;16.994;2023-05-14T07:25:32;15.18;;;7.53;;
75628;SDS011;64213;46.452;16.994;2023-05-14T07:28:34;13.57;;;6.95;;
75628;SDS011;64213;46.452;16.994;2023-05-14T07:31:36;18.37;;;8.40;;
75628;SDS011;64213;46.452;16.994;2023-05-14T07:34:38;14.73;;;7.40;;
75628;SDS011;64213;46.452;16.994;2023-05-14T07:37:40;13.50;;;7.35;;
75628;SDS011;64213;46.452;16.994;2023-05-14T07:40:43;13.00;;;6.50;;
75628;SDS011;64213;46.452;16.994;2023-05-14T07:43:45;13.82;;;7.72;;
75628;SDS011;64213;46.452;16.994;2023-05-14T07:46:47;14.70;;;8.27;;
75628;SDS011;64213;46.452;16.994;2023-05-14T07:49:52;14.87;;;7.00;;
75628;SDS011;64213;46.452;16.994;2023-05-14T07:52:55;12.98;;;6.87;;
75628;SDS011;64213;46.452;16.994;2023-05-14T07:55:57;10.40;;;5.75;;
75628;SDS011;64213;46.452;16.994;2023-05-14T07:59:00;12.55;;;6.43;;
75628;SDS011;64213;46.452;16.994;2023-05-14T08:02:02;12.80;;;6.80;;
75628;SDS011;64213;46.452;16.994;2023-05-14T08:05:04;14.23;;;7.00;;
75628;SDS011;64213;46.452;16.994;2023-05-14T08:08:07;11.93;;;5.55;;
75628;SDS011;64213;46.452;16.994;2023-05-14T08:11:09;13.15;;;6.80;;
75628;SDS011;64213;46.452;16.994;2023-05-14T08:14:11;13.15;;;6.35;;
75628;SDS011;64213;46.452;16.994;2023-05-14T08:17:13;12.00;;;5.90;;
75628;SDS011;64213;46.452;16.994;2023-05-14T08:20:15;12.83;;;6.17;;
75628;SDS011;64213;46.452;16.994;2023-05-14T08:23:17;13.18;;;5.90;;
75628;SDS011;64213;46.452;16.994;2023-05-14T08:26:19;8.77;;;4.03;;
75628;SDS011;64213;46.452;16.994;2023-05-14T08:29:22;10.57;;;4.82;;
75628;SDS011;64213;46.452;16.994;2023-05-14T08:32:24;10.93;;;5.77;;
75628;SDS011;64213;46.452;16.994;2023-05-14T08:35:26;12.67;;;5.80;;
75628;SDS011;64213;46.452;16.994;2023-05-14T08:38:28;12.10;;;6.03;;
75628;SDS011;64213;46.452;16.994;2023-05-14T08:41:30;11.57;;;5.85;;
75628;SDS011;64213;46.452;16.994;2023-05-14T08:44:37;12.02;;;6.10;;
75628;SDS011;64213;46.452;16.994;2023-05-14T08:47:46;11.93;;;5.77;;
75628;SDS011;64213;46.452;16.994;2023-05-14T08:50:53;11.17;;;5.30;;
75628;SDS011;64213;46.452;16.994;2023-05-14T08:53:56;10.63;;;5.15;;
75628;SDS011;64213;46.452;16.994;2023-05-14T08:57:03;11.32;;;5.53;;
75628;SDS011;64213;46.452;16.994;2023-05-14T09:00:06;7.35;;;2.97;;
75628;SDS011;64213;46.452;16.994;2023-05-14T09:03:09;11.83;;;5.83;;
75628;SDS011;64213;46.452;16.994;2023-05-14T09:06:12;10.90;;;5.67;;
75628;SDS011;64213;46.452;16.994;2023-05-14T09:09:15;11.98;;;5.60;;
75628;SDS011;64213;46.452;16.994;2023-05-14T09:12:17;12.57;;;6.25;;
75628;SDS011;64213;46.452;16.994;2023-05-14T09:15:19;11.45;;;5.55;;
75628;SDS011;64213;46.452;16.994;2023-05-14T09:18:21;12.83;;;6.73;;
75628;SDS011;64213;46.452;16.994;2023-05-14T09:21:23;14.40;;;7.87;;
75628;SDS011;64213;46.452;16.994;2023-05-14T09:24:26;13.70;;;7.50;;
75628;SDS011;64213;46.452;16.994;2023-05-14T09:27:32;13.73;;;7.62;;
75628;SDS011;64213;46.452;16.994;2023-05-14T09:30:34;14.35;;;7.68;;
75628;SDS011;64213;46.452;16.994;2023-05-14T09:33:37;13.67;;;8.00;;
75628;SDS011;64213;46.452;16.994;2023-05-14T09:36:39;14.63;;;8.33;;
75628;SDS011;64213;46.452;16.994;2023-05-14T09:39:41;17.10;;;9.30;;
75628;SDS011;64213;46.452;16.994;2023-05-14T09:42:43;17.20;;;9.45;;
75628;SDS011;64213;46.452;16.994;2023-05-14T09:45:45;17.95;;;10.25;;
75628;SDS011;64213;46.452;16.994;2023-05-14T09:48:48;17.53;;;9.90;;
75628;SDS011;64213;46.452;16.994;2023-05-14T09:51:50;17.80;;;10.20;;
75628;SDS011;64213;46.452;16.994;2023-05-14T09:54:52;20.55;;;10.30;;
75628;SDS011;64213;46.452;16.994;2023-05-14T09:57:54;17.77;;;9.55;;
75628;SDS011;64213;46.452;16.994;2023-05-14T10:00:56;18.25;;;10.55;;
75628;SDS011;64213;46.452;16.994;2023-05-14T10:03:59;17.23;;;10.43;;
75628;SDS011;64213;46.452;16.994;2023-05-14T10:07:04;17.80;;;10.27;;
75628;SDS011;64213;46.452;16.994;2023-05-14T10:10:06;18.67;;;10.07;;
75628;SDS011;64213;46.452;16.994;2023-05-14T10:13:12;18.12;;;10.50;;
75628;SDS011;64213;46.452;16.994;2023-05-14T10:16:17;19.62;;;10.63;;
75628;SDS011;64213;46.452;16.994;2023-05-14T10:19:23;16.80;;;9.33;;
75628;SDS011;64213;46.452;16.994;2023-05-14T10:22:26;18.17;;;9.60;;
75628;SDS011;64213;46.452;16.994;2023-05-14T10:25:34;17.48;;;9.70;;
75628;SDS011;64213;46.452;16.994;2023-05-14T10:28:37;17.05;;;9.18;;
75628;SDS011;64213;46.452;16.994;2023-05-14T10:34:52;16.17;;;9.00;;
75628;SDS011;64213;46.452;16.994;2023-05-14T10:37:54;17.87;;;9.03;;
75628;SDS011;64213;46.452;16.994;2023-05-14T10:41:04;16.40;;;8.95;;
75628;SDS011;64213;46.452;16.994;2023-05-14T10:44:07;15.05;;;8.07;;
75628;SDS011;64213;46.452;16.994;2023-05-14T10:47:10;16.67;;;8.55;;
75628;SDS011;64213;46.452;16.994;2023-05-14T10:50:13;15.07;;;8.00;;
75628;SDS011;64213;46.452;16.994;2023-05-14T10:53:16;14.07;;;7.83;;
75628;SDS011;64213;46.452;16.994;2023-05-14T10:56:18;13.02;;;6.70;;
75628;SDS011;64213;46.452;16.994;2023-05-14T10:59:23;14.18;;;7.75;;
75628;SDS011;64213;46.452;16.994;2023-05-14T11:02:29;16.40;;;8.05;;
75628;SDS011;64213;46.452;16.994;2023-05-14T11:05:32;14.30;;;6.23;;
75628;SDS011;64213;46.452;16.994;2023-05-14T11:08:38;13.70;;;6.80;;
75628;SDS011;64213;46.452;16.994;2023-05-14T11:11:40;14.60;;;6.90;;
75628;SDS011;64213;46.452;16.994;2023-05-14T11:14:42;13.10;;;6.10;;
75628;SDS011;64213;46.452;16.994;2023-05-14T11:17:44;11.48;;;5.50;;
75628;SDS011;64213;46.452;16.994;2023-05-14T11:20:47;11.87;;;5.90;;
75628;SDS011;64213;46.452;16.994;2023-05-14T11:23:49;11.33;;;5.07;;
75628;SDS011;64213;46.452;16.994;2023-05-14T11:26:51;12.45;;;5.72;;
75628;SDS011;64213;46.452;16.994;2023-05-14T11:29:56;9.68;;;4.87;;
75628;SDS011;64213;46.452;16.994;2023-05-14T11:32:58;12.93;;;5.32;;
75628;SDS011;64213;46.452;16.994;2023-05-14T11:36:02;11.63;;;5.30;;
75628;SDS011;64213;46.452;16.994;2023-05-14T11:39:04;11.80;;;5.90;;
75628;SDS011;64213;46.452;16.994;2023-05-14T11:42:09;10.02;;;5.18;;
75628;SDS011;64213;46.452;16.994;2023-05-14T11:45:12;11.88;;;5.93;;
75628;SDS011;64213;46.452;16.994;2023-05-14T11:48:24;11.27;;;5.57;;
75628;SDS011;64213;46.452;16.994;2023-05-14T11:51:26;11.80;;;5.80;;
75628;SDS011;64213;46.452;16.994;2023-05-14T11:54:29;12.87;;;5.70;;
75628;SDS011;64213;46.452;16.994;2023-05-14T11:57:33;13.02;;;5.93;;
75628;SDS011;64213;46.452;16.994;2023-05-14T12:00:37;11.93;;;5.68;;
75628;SDS011;64213;46.452;16.994;2023-05-14T12:03:40;11.75;;;6.40;;
75628;SDS011;64213;46.452;16.994;2023-05-14T12:06:42;11.00;;;5.15;;
75628;SDS011;64213;46.452;16.994;2023-05-14T12:09:45;11.50;;;5.70;;
75628;SDS011;64213;46.452;16.994;2023-05-14T12:12:50;10.20;;;5.03;;
75628;SDS011;64213;46.452;16.994;2023-05-14T12:15:53;11.93;;;5.35;;
75628;SDS011;64213;46.452;16.994;2023-05-14T12:18:59;10.20;;;5.00;;
75628;SDS011;64213;46.452;16.994;2023-05-14T12:22:02;12.63;;;5.77;;
75628;SDS011;64213;46.452;16.994;2023-05-14T12:25:08;10.13;;;5.13;;
75628;SDS011;64213;46.452;16.994;2023-05-14T12:28:13;10.60;;;5.10;;
75628;SDS011;64213;46.452;16.994;2023-05-14T12:31:16;10.02;;;4.70;;
75628;SDS011;64213;46.452;16.994;2023-05-14T12:34:18;10.25;;;5.05;;
75628;SDS011;64213;46.452;16.994;2023-05-14T12:37:20;9.90;;;4.80;;
75628;SDS011;64213;46.452;16.994;2023-05-14T12:40:22;9.20;;;4.20;;
75628;SDS011;64213;46.452;16.994;2023-05-14T12:43:25;10.20;;;4.22;;
75628;SDS011;64213;46.452;16.994;2023-05-14T12:46:32;9.98;;;4.37;;
75628;SDS011;64213;46.452;16.994;2023-05-14T12:49:35;11.32;;;3.90;;
75628;SDS011;64213;46.452;16.994;2023-05-14T12:52:37;10.33;;;4.57;;
75628;SDS011;64213;46.452;16.994;2023-05-14T12:55:40;9.27;;;3.90;;
75628;SDS011;64213;46.452;16.994;2023-05-14T12:58:42;9.60;;;4.55;;
75628;SDS011;64213;46.452;16.994;2023-05-14T13:01:44;10.25;;;4.87;;
75628;SDS011;64213;46.452;16.994;2023-05-14T13:04:46;8.45;;;3.90;;
75628;SDS011;64213;46.452;16.994;2023-05-14T13:07:48;9.27;;;3.70;;
75628;SDS011;64213;46.452;16.994;2023-05-14T13:10:50;9.57;;;4.17;;
75628;SDS011;64213;46.452;16.994;2023-05-14T13:13:55;9.13;;;4.00;;
75628;SDS011;64213;46.452;16.994;2023-05-14T13:16:57;8.57;;;3.62;;
75628;SDS011;64213;46.452;16.994;2023-05-14T13:19:59;9.50;;;3.90;;
75628;SDS011;64213;46.452;16.994;2023-05-14T13:23:01;8.63;;;3.47;;
75628;SDS011;64213;46.452;16.994;2023-05-14T13:26:03;8.10;;;3.37;;
75628;SDS011;64213;46.452;16.994;2023-05-14T13:29:05;8.68;;;3.67;;
75628;SDS011;64213;46.452;16.994;2023-05-14T13:32:08;8.55;;;3.78;;
75628;SDS011;64213;46.452;16.994;2023-05-14T13:35:10;8.25;;;2.95;;
75628;SDS011;64213;46.452;16.994;2023-05-14T13:38:12;9.30;;;4.03;;
75628;SDS011;64213;46.452;16.994;2023-05-14T13:41:14;9.53;;;3.70;;
75628;SDS011;64213;46.452;16.994;2023-05-14T13:44:18;7.62;;;3.10;;
75628;SDS011;64213;46.452;16.994;2023-05-14T13:47:20;8.60;;;3.53;;
75628;SDS011;64213;46.452;16.994;2023-05-14T13:50:22;8.35;;;3.50;;
75628;SDS011;64213;46.452;16.994;2023-05-14T13:53:24;8.32;;;3.30;;
75628;SDS011;64213;46.452;16.994;2023-05-14T13:56:26;8.23;;;3.43;;
75628;SDS011;64213;46.452;16.994;2023-05-14T13:59:28;8.30;;;3.55;;
75628;SDS011;64213;46.452;16.994;2023-05-14T14:02:30;10.38;;;4.40;;
75628;SDS011;64213;46.452;16.994;2023-05-14T14:05:35;8.40;;;3.67;;
75628;SDS011;64213;46.452;16.994;2023-05-14T14:08:37;8.27;;;4.18;;
75628;SDS011;64213;46.452;16.994;2023-05-14T14:11:39;9.07;;;3.57;;
75628;SDS011;64213;46.452;16.994;2023-05-14T14:14:41;8.15;;;3.30;;
75628;SDS011;64213;46.452;16.994;2023-05-14T14:17:43;8.20;;;3.25;;
75628;SDS011;64213;46.452;16.994;2023-05-14T14:20:45;8.80;;;3.70;;
75628;SDS011;64213;46.452;16.994;2023-05-14T14:23:47;9.05;;;4.05;;
75628;SDS011;64213;46.452;16.994;2023-05-14T14:26:49;8.60;;;3.87;;
75628;SDS011;64213;46.452;16.994;2023-05-14T14:29:51;7.95;;;3.37;;
75628;SDS011;64213;46.452;16.994;2023-05-14T14:32:53;8.00;;;3.10;;
75628;SDS011;64213;46.452;16.994;2023-05-14T14:35:55;9.05;;;3.95;;
75628;SDS011;64213;46.452;16.994;2023-05-14T14:38:57;8.57;;;3.37;;
75628;SDS011;64213;46.452;16.994;2023-05-14T14:41:59;8.27;;;3.17;;
75628;SDS011;64213;46.452;16.994;2023-05-14T14:45:02;8.27;;;3.45;;
75628;SDS011;64213;46.452;16.994;2023-05-14T14:51:32;8.88;;;3.33;;
75628;SDS011;64213;46.452;16.994;2023-05-14T14:54:34;8.10;;;3.30;;
75628;SDS011;64213;46.452;16.994;2023-05-14T14:57:36;7.40;;;2.80;;
75628;SDS011;64213;46.452;16.994;2023-05-14T15:00:38;7.85;;;2.78;;
75628;SDS011;64213;46.452;16.994;2023-05-14T15:03:40;7.40;;;2.70;;
75628;SDS011;64213;46.452;16.994;2023-05-14T15:06:43;7.10;;;2.70;;
75628;SDS011;64213;46.452;16.994;2023-05-14T15:09:45;8.48;;;2.97;;
75628;SDS011;64213;46.452;16.994;2023-05-14T15:12:47;7.30;;;2.77;;
75628;SDS011;64213;46.452;16.994;2023-05-14T15:15:49;8.15;;;3.25;;
75628;SDS011;64213;46.452;16.994;2023-05-14T15:18:52;7.57;;;2.85;;
75628;SDS011;64213;46.452;16.994;2023-05-14T15:21:54;8.05;;;3.20;;
75628;SDS011;64213;46.452;16.994;2023-05-14T15:24:56;7.40;;;2.55;;
75628;SDS011;64213;46.452;16.994;2023-05-14T15:27:58;10.10;;;4.20;;
75628;SDS011;64213;46.452;16.994;2023-05-14T15:31:01;10.68;;;3.92;;
75628;SDS011;64213;46.452;16.994;2023-05-14T15:34:03;7.47;;;2.92;;
75628;SDS011;64213;46.452;16.994;2023-05-14T15:37:05;8.35;;;3.00;;
75628;SDS011;64213;46.452;16.994;2023-05-14T15:40:07;7.97;;;2.72;;
75628;SDS011;64213;46.452;16.994;2023-05-14T15:43:10;9.77;;;3.50;;
75628;SDS011;64213;46.452;16.994;2023-05-14T15:46:12;8.00;;;2.90;;
75628;SDS011;64213;46.452;16.994;2023-05-14T15:49:14;7.20;;;2.87;;
75628;SDS011;64213;46.452;16.994;2023-05-14T15:52:17;9.00;;;2.53;;
75628;SDS011;64213;46.452;16.994;2023-05-14T15:55:19;5.78;;;1.83;;
75628;SDS011;64213;46.452;16.994;2023-05-14T15:58:21;7.43;;;2.40;;
75628;SDS011;64213;46.452;16.994;2023-05-14T16:01:23;6.95;;;2.20;;
75628;SDS011;64213;46.452;16.994;2023-05-14T16:04:25;7.07;;;2.33;;
75628;SDS011;64213;46.452;16.994;2023-05-14T16:07:27;6.50;;;2.30;;
75628;SDS011;64213;46.452;16.994;2023-05-14T16:10:29;6.72;;;1.90;;
75628;SDS011;64213;46.452;16.994;2023-05-14T16:13:31;6.43;;;2.20;;
75628;SDS011;64213;46.452;16.994;2023-05-14T16:16:33;7.65;;;2.08;;
75628;SDS011;64213;46.452;16.994;2023-05-14T16:19:35;6.93;;;2.28;;
75628;SDS011;64213;46.452;16.994;2023-05-14T16:22:39;6.55;;;2.10;;
75628;SDS011;64213;46.452;16.994;2023-05-14T16:25:41;9.23;;;2.55;;
75628;SDS011;64213;46.452;16.994;2023-05-14T16:28:43;6.83;;;2.03;;
75628;SDS011;64213;46.452;16.994;2023-05-14T16:31:45;6.68;;;2.05;;
75628;SDS011;64213;46.452;16.994;2023-05-14T16:34:47;6.78;;;2.10;;
75628;SDS011;64213;46.452;16.994;2023-05-14T16:37:52;6.90;;;1.90;;
75628;SDS011;64213;46.452;16.994;2023-05-14T16:40:54;6.77;;;2.10;;
75628;SDS011;64213;46.452;16.994;2023-05-14T16:43:56;7.33;;;2.57;;
75628;SDS011;64213;46.452;16.994;2023-05-14T16:46:59;8.73;;;3.00;;
75628;SDS011;64213;46.452;16.994;2023-05-14T16:50:01;8.65;;;3.10;;
75628;SDS011;64213;46.452;16.994;2023-05-14T16:53:03;8.13;;;2.40;;
75628;SDS011;64213;46.452;16.994;2023-05-14T16:56:05;10.05;;;3.78;;
75628;SDS011;64213;46.452;16.994;2023-05-14T16:59:07;8.57;;;2.57;;
75628;SDS011;64213;46.452;16.994;2023-05-14T17:02:10;7.75;;;2.55;;
75628;SDS011;64213;46.452;16.994;2023-05-14T17:05:12;9.70;;;3.65;;
75628;SDS011;64213;46.452;16.994;2023-05-14T17:08:14;7.85;;;3.20;;
75628;SDS011;64213;46.452;16.994;2023-05-14T17:11:16;9.60;;;3.72;;
75628;SDS011;64213;46.452;16.994;2023-05-14T17:14:19;8.73;;;3.20;;
75628;SDS011;64213;46.452;16.994;2023-05-14T17:17:21;8.10;;;3.30;;
75628;SDS011;64213;46.452;16.994;2023-05-14T17:20:23;8.07;;;2.92;;
75628;SDS011;64213;46.452;16.994;2023-05-14T17:23:26;9.75;;;3.15;;
75628;SDS011;64213;46.452;16.994;2023-05-14T17:26:28;14.95;;;7.97;;
75628;SDS011;64213;46.452;16.994;2023-05-14T17:29:30;8.77;;;3.30;;
75628;SDS011;64213;46.452;16.994;2023-05-14T17:32:32;9.57;;;3.50;;
75628;SDS011;64213;46.452;16.994;2023-05-14T17:35:34;9.65;;;3.42;;
75628;SDS011;64213;46.452;16.994;2023-05-14T17:38:37;9.23;;;3.60;;
75628;SDS011;64213;46.452;16.994;2023-05-14T17:41:39;9.52;;;3.83;;
75628;SDS011;64213;46.452;16.994;2023-05-14T17:44:42;8.57;;;3.07;;
75628;SDS011;64213;46.452;16.994;2023-05-14T17:47:44;9.65;;;3.37;;
75628;SDS011;64213;46.452;16.994;2023-05-14T17:50:46;10.18;;;3.58;;
75628;SDS011;64213;46.452;16.994;2023-05-14T17:53:48;9.52;;;3.72;;
75628;SDS011;64213;46.452;16.994;2023-05-14T17:56:51;10.02;;;3.65;;
75628;SDS011;64213;46.452;16.994;2023-05-14T17:59:54;10.10;;;3.80;;
75628;SDS011;64213;46.452;16.994;2023-05-14T18:02:56;10.27;;;3.25;;